createdAt,value
2023-05-18T00:01:16.847Z,74.16
2023-05-18T00:05:21.796Z,74.57
2023-05-18T00:09:25.811Z,74.66
2023-05-18T00:13:29.840Z,74.59
2023-05-18T00:17:33.071Z,74.58
2023-05-18T00:21:38.292Z,74.53
2023-05-18T00:25:43.400Z,74.49
2023-05-18T00:29:47.162Z,74.64
2023-05-18T00:33:50.578Z,74.69
2023-05-18T00:37:58.346Z,74.70
2023-05-18T00:42:01.481Z,74.85
2023-05-18T00:46:04.665Z,74.85
2023-05-18T00:50:09.401Z,74.74
2023-05-18T00:54:14.029Z,74.83
2023-05-18T00:58:17.851Z,74.93
2023-05-18T01:02:21.576Z,75.03
2023-05-18T01:06:27.457Z,75.09
2023-05-18T01:10:36.011Z,75.16
2023-05-18T01:14:46.374Z,75.26
2023-05-18T01:19:02.380Z,75.33
2023-05-18T01:23:36.514Z,75.33
2023-05-18T01:27:42.653Z,75.37
2023-05-18T01:31:46.055Z,75.48
2023-05-18T01:35:49.407Z,75.62
2023-05-18T01:39:55.654Z,75.44
2023-05-18T01:44:08.176Z,75.41
2023-05-18T01:48:14.002Z,75.45
2023-05-18T01:52:20.817Z,75.42
2023-05-18T01:56:24.985Z,75.27
2023-05-18T02:00:30.950Z,75.25
2023-05-18T02:04:35.402Z,75.26
2023-05-18T02:08:39.398Z,75.37
2023-05-18T02:12:53.760Z,75.76
2023-05-18T02:16:58.498Z,75.59
2023-05-18T02:21:02.412Z,75.94
2023-05-18T02:25:07.775Z,75.73
2023-05-18T02:29:12.190Z,75.63
2023-05-18T02:33:17.959Z,75.61
2023-05-18T02:37:23.501Z,75.61
2023-05-18T02:41:27.004Z,75.64
2023-05-18T02:45:33.118Z,75.66
2023-05-18T02:49:38.244Z,75.78
2023-05-18T02:53:44.458Z,75.53
2023-05-18T02:57:49.519Z,75.59
2023-05-18T03:01:53.265Z,75.77
2023-05-18T03:05:58.900Z,75.67
2023-05-18T03:10:04.708Z,75.73
2023-05-18T03:14:07.843Z,75.68
2023-05-18T03:18:11.150Z,75.70
2023-05-18T03:22:16.140Z,75.62
2023-05-18T03:26:19.278Z,75.53
2023-05-18T03:30:22.590Z,75.63
2023-05-18T03:34:27.153Z,75.67
2023-05-18T03:38:32.396Z,75.83
2023-05-18T03:42:35.824Z,75.78
2023-05-18T03:46:39.204Z,75.64
2023-05-18T03:50:42.857Z,75.94
2023-05-18T03:54:50.095Z,75.99
2023-05-18T03:58:53.170Z,75.90
2023-05-18T04:02:58.070Z,76.00
2023-05-18T04:07:06.525Z,75.85
2023-05-18T04:11:11.821Z,75.49
2023-05-18T04:15:15.889Z,75.54
2023-05-18T04:19:20.687Z,75.77
2023-05-18T04:23:24.175Z,75.34
2023-05-18T04:27:29.818Z,75.25
2023-05-18T04:31:34.834Z,74.98
2023-05-18T04:35:38.499Z,74.77
2023-05-18T04:39:42.403Z,74.75
2023-05-18T04:43:47.724Z,74.42
2023-05-18T04:47:54.515Z,74.39
2023-05-18T04:52:00.387Z,74.22
2023-05-18T04:56:03.688Z,73.91
2023-05-18T05:00:11.611Z,74.26
2023-05-18T05:04:15.116Z,74.35
2023-05-18T05:08:18.236Z,74.33
2023-05-18T05:12:21.385Z,73.71
2023-05-18T05:16:26.279Z,74.31
2023-05-18T05:20:29.903Z,73.95
2023-05-18T05:24:33.758Z,73.83
2023-05-18T05:28:36.877Z,73.72
2023-05-18T05:32:41.579Z,72.86
2023-05-18T05:36:44.739Z,72.85
2023-05-18T05:40:48.020Z,72.56
2023-05-18T05:44:51.122Z,72.81
2023-05-18T05:48:56.766Z,71.58
2023-05-18T05:53:00.204Z,71.73
2023-05-18T05:57:04.396Z,70.82
2023-05-18T06:01:10.979Z,71.23
2023-05-18T06:05:16.052Z,69.38
2023-05-18T06:09:19.026Z,68.98
2023-05-18T06:13:22.357Z,68.91
2023-05-18T06:17:25.821Z,68.78
2023-05-18T06:21:30.486Z,68.78
2023-05-18T06:25:35.446Z,67.33
2023-05-18T06:29:39.030Z,67.23
2023-05-18T06:33:44.470Z,66.77
2023-05-18T06:37:49.254Z,66.59
2023-05-18T06:41:52.933Z,66.74
2023-05-18T06:45:57.269Z,66.68
2023-05-18T06:50:00.507Z,65.21
2023-05-18T06:54:06.038Z,65.18
2023-05-18T06:58:09.613Z,65.47
2023-05-18T07:02:13.804Z,66.00
2023-05-18T07:06:17.720Z,67.09
2023-05-18T07:10:23.148Z,66.30
2023-05-18T07:14:26.579Z,66.37
2023-05-18T07:18:30.047Z,66.16
2023-05-18T07:22:33.378Z,67.13
2023-05-18T07:26:38.647Z,65.82
2023-05-18T07:30:43.326Z,64.95
2023-05-18T07:34:48.057Z,64.73
2023-05-18T07:38:55.031Z,63.48
2023-05-18T07:43:00.020Z,63.56
2023-05-18T07:47:03.524Z,64.17
2023-05-18T07:51:07.612Z,62.91
2023-05-18T07:55:11.457Z,63.37
2023-05-18T07:59:16.505Z,63.57
2023-05-18T08:03:20.574Z,63.96
2023-05-18T08:07:26.926Z,63.52
2023-05-18T08:11:30.208Z,61.88
2023-05-18T08:15:35.592Z,59.52
2023-05-18T08:19:41.099Z,58.68
2023-05-18T08:23:45.060Z,61.43
2023-05-18T08:27:48.380Z,62.07
2023-05-18T08:31:54.386Z,62.08
2023-05-18T08:35:59.120Z,64.09
2023-05-18T08:40:05.272Z,65.33
2023-05-18T08:44:13.450Z,66.20
2023-05-18T08:48:18.425Z,66.65
2023-05-18T08:52:28.054Z,66.87
2023-05-18T08:56:34.000Z,66.62
2023-05-18T09:00:38.700Z,67.15
2023-05-18T09:04:45.231Z,68.55
2023-05-18T09:08:48.831Z,67.84
2023-05-18T09:12:53.469Z,66.71
2023-05-18T09:16:57.146Z,68.05
2023-05-18T09:21:02.448Z,67.08
2023-05-18T09:25:09.920Z,67.60
2023-05-18T09:29:21.042Z,68.53
2023-05-18T09:33:27.917Z,65.81
2023-05-18T09:37:33.119Z,66.64
2023-05-18T09:41:36.676Z,65.61
2023-05-18T09:45:44.981Z,65.75
2023-05-18T09:49:48.903Z,63.99
2023-05-18T09:53:57.373Z,64.70
2023-05-18T09:58:03.456Z,61.68
2023-05-18T10:02:09.413Z,60.02
2023-05-18T10:06:13.714Z,60.68
2023-05-18T10:10:23.138Z,60.70
2023-05-18T10:14:31.609Z,59.08
2023-05-18T10:18:37.807Z,59.76
2023-05-18T10:22:42.390Z,55.99
2023-05-18T10:26:52.986Z,57.89
2023-05-18T10:30:58.918Z,56.20
2023-05-18T10:35:06.125Z,57.57
2023-05-18T10:39:12.500Z,57.50
2023-05-18T10:43:21.264Z,57.15
2023-05-18T10:47:26.677Z,56.24
2023-05-18T10:51:32.777Z,55.76
2023-05-18T10:55:36.188Z,57.40
2023-05-18T10:59:48.205Z,56.38
2023-05-18T11:03:52.157Z,56.28
2023-05-18T11:08:04.338Z,57.38
2023-05-18T11:12:13.251Z,58.02
2023-05-18T11:16:19.074Z,54.98
2023-05-18T11:20:27.251Z,56.40
2023-05-18T11:24:34.685Z,55.74
2023-05-18T11:28:44.793Z,55.73
2023-05-18T11:32:52.974Z,56.24
2023-05-18T11:36:58.251Z,54.36
2023-05-18T11:41:01.801Z,56.22
2023-05-18T11:45:09.157Z,57.03
2023-05-18T11:49:18.366Z,58.22
2023-05-18T11:53:24.135Z,55.63
2023-05-18T11:57:29.276Z,54.14
2023-05-18T12:01:36.292Z,53.98
2023-05-18T12:05:44.598Z,53.97
2023-05-18T12:09:51.442Z,55.57
2023-05-18T12:13:56.679Z,54.56
2023-05-18T12:18:00.658Z,54.53
2023-05-18T12:22:06.292Z,54.90
2023-05-18T12:26:10.203Z,53.81
2023-05-18T12:30:14.697Z,55.09
2023-05-18T12:34:18.209Z,53.56
2023-05-18T12:38:28.485Z,52.96
2023-05-18T12:42:32.894Z,54.10
2023-05-18T12:46:36.372Z,54.82
2023-05-18T12:50:48.490Z,55.58
2023-05-18T12:55:00.097Z,54.19
2023-05-18T12:59:06.349Z,51.09
2023-05-18T13:03:14.726Z,52.67
2023-05-18T13:07:19.024Z,51.86
2023-05-18T13:11:26.387Z,52.91
2023-05-18T13:15:34.759Z,53.96
2023-05-18T13:19:38.505Z,53.56
2023-05-18T13:23:41.982Z,53.02
2023-05-18T13:27:49.083Z,52.66
2023-05-18T13:31:54.854Z,53.37
2023-05-18T13:35:58.690Z,53.58
2023-05-18T13:40:05.307Z,53.17
2023-05-18T13:44:09.969Z,54.07
2023-05-18T13:48:14.804Z,54.22
2023-05-18T13:52:20.630Z,55.27
2023-05-18T13:56:25.467Z,54.37
2023-05-18T14:00:33.674Z,54.37
2023-05-18T14:04:39.496Z,54.36
2023-05-18T14:08:42.740Z,54.32
2023-05-18T14:12:46.896Z,55.90
2023-05-18T14:16:52.021Z,55.16
2023-05-18T14:21:01.184Z,54.39
2023-05-18T14:25:04.798Z,54.12
2023-05-18T14:29:08.139Z,54.52
2023-05-18T14:33:11.648Z,54.86
2023-05-18T14:37:16.017Z,55.88
2023-05-18T14:41:19.420Z,54.85
2023-05-18T14:45:22.902Z,56.05
2023-05-18T14:49:25.921Z,54.81
2023-05-18T14:53:31.104Z,55.31
2023-05-18T14:57:34.376Z,53.85
2023-05-18T15:01:40.127Z,53.79
2023-05-18T15:05:44.769Z,53.29
2023-05-18T15:09:50.300Z,53.47
2023-05-18T15:13:54.230Z,52.89
2023-05-18T15:17:58.121Z,52.53
2023-05-18T15:22:01.766Z,54.03
2023-05-18T15:26:08.938Z,53.13
2023-05-18T15:30:13.354Z,51.01
2023-05-18T15:34:16.946Z,51.35
2023-05-18T15:38:21.590Z,50.89
2023-05-18T15:42:26.285Z,52.29
2023-05-18T15:46:35.002Z,51.50
2023-05-18T15:50:38.617Z,52.24
2023-05-18T15:54:42.128Z,52.18
2023-05-18T15:58:47.463Z,53.32
2023-05-18T16:02:50.828Z,52.25
2023-05-18T16:06:54.214Z,52.80
2023-05-18T16:10:59.079Z,53.16
2023-05-18T16:15:05.913Z,54.57
2023-05-18T16:19:12.380Z,54.33
2023-05-18T16:23:15.798Z,53.46
2023-05-18T16:27:20.283Z,53.94
2023-05-18T16:31:25.450Z,54.83
2023-05-18T16:35:31.250Z,54.65
2023-05-18T16:39:34.923Z,54.45
2023-05-18T16:43:38.150Z,53.80
2023-05-18T16:47:45.368Z,53.27
2023-05-18T16:51:48.480Z,54.71
2023-05-18T16:55:51.657Z,54.95
2023-05-18T16:59:55.491Z,54.66
2023-05-18T17:04:00.554Z,54.79
2023-05-18T17:08:05.170Z,55.61
2023-05-18T17:12:11.358Z,56.90
2023-05-18T17:16:22.200Z,57.10
2023-05-18T17:20:27.218Z,57.07
2023-05-18T17:24:30.338Z,57.58
2023-05-18T17:28:33.533Z,57.42
2023-05-18T17:32:42.430Z,58.25
2023-05-18T17:36:48.007Z,58.49
2023-05-18T17:40:51.396Z,58.81
2023-05-18T17:44:55.224Z,58.38
2023-05-18T17:49:02.348Z,58.56
2023-05-18T17:53:08.234Z,59.30
2023-05-18T17:57:11.536Z,59.62
2023-05-18T18:01:15.031Z,60.39
2023-05-18T18:05:18.451Z,59.96
2023-05-18T18:09:23.528Z,61.26
2023-05-18T18:13:26.824Z,60.79
2023-05-18T18:17:30.388Z,61.17
2023-05-18T18:21:33.969Z,61.99
2023-05-18T18:25:40.295Z,62.43
2023-05-18T18:29:45.696Z,62.43
2023-05-18T18:33:50.682Z,62.19
2023-05-18T18:37:55.038Z,62.38
2023-05-18T18:42:02.551Z,62.54
2023-05-18T18:46:10.500Z,62.60
2023-05-18T18:50:13.771Z,62.96
2023-05-18T18:54:17.462Z,63.53
2023-05-18T18:58:25.403Z,63.66
2023-05-18T19:02:29.202Z,63.74
2023-05-18T19:06:33.562Z,64.49
2023-05-18T19:10:36.926Z,64.31
2023-05-18T19:14:43.361Z,64.97
2023-05-18T19:18:47.326Z,65.16
2023-05-18T19:22:50.438Z,65.40
2023-05-18T19:26:53.516Z,65.70
2023-05-18T19:30:58.148Z,65.81
2023-05-18T19:35:01.939Z,66.14
2023-05-18T19:39:05.236Z,66.33
2023-05-18T19:43:12.165Z,66.60
2023-05-18T19:47:18.377Z,66.88
2023-05-18T19:51:24.204Z,66.91
2023-05-18T19:55:27.754Z,67.13
2023-05-18T19:59:32.339Z,66.97
2023-05-18T20:03:42.297Z,67.14
2023-05-18T20:07:46.993Z,67.35
2023-05-18T20:11:50.738Z,67.62
2023-05-18T20:15:54.542Z,67.63
2023-05-18T20:20:00.497Z,67.83
2023-05-18T20:24:05.648Z,67.95
2023-05-18T20:28:09.735Z,68.11
2023-05-18T20:32:13.064Z,68.41
2023-05-18T20:36:17.544Z,68.77
2023-05-18T20:40:21.597Z,69.14
2023-05-18T20:44:28.054Z,69.37
2023-05-18T20:48:32.164Z,69.26
2023-05-18T20:52:37.392Z,69.33
2023-05-18T20:56:43.546Z,69.32
2023-05-18T21:00:48.189Z,69.11
2023-05-18T21:04:51.757Z,69.43
2023-05-18T21:08:57.137Z,69.24
2023-05-18T21:13:00.689Z,69.24
2023-05-18T21:17:13.796Z,69.76
2023-05-18T21:21:17.285Z,69.72
2023-05-18T21:25:24.702Z,69.82
2023-05-18T21:29:28.340Z,69.96
2023-05-18T21:33:33.453Z,70.14
2023-05-18T21:37:37.881Z,70.25
2023-05-18T21:41:56.116Z,70.25
2023-05-18T21:45:59.297Z,70.43
2023-05-18T21:50:03.700Z,70.48
2023-05-18T21:54:07.603Z,70.46
2023-05-18T21:58:12.137Z,70.62
2023-05-18T22:02:15.215Z,70.53
2023-05-18T22:06:19.254Z,70.70
2023-05-18T22:10:22.620Z,70.71
2023-05-18T22:14:27.466Z,70.58
2023-05-18T22:18:32.504Z,70.62
2023-05-18T22:22:35.850Z,70.93
2023-05-18T22:26:39.265Z,70.71
2023-05-18T22:30:44.102Z,70.82
2023-05-18T22:34:48.052Z,70.97
2023-05-18T22:38:52.718Z,70.73
2023-05-18T22:42:57.274Z,70.92
2023-05-18T22:47:02.373Z,71.11
2023-05-18T22:51:06.635Z,71.07
2023-05-18T22:55:13.714Z,70.93
2023-05-18T22:59:17.067Z,71.02
2023-05-18T23:03:22.398Z,70.99
2023-05-18T23:07:25.679Z,71.13
2023-05-18T23:11:31.770Z,71.24
2023-05-18T23:15:35.650Z,71.47
2023-05-18T23:19:40.998Z,71.48
2023-05-18T23:23:46.101Z,71.54
2023-05-18T23:27:49.757Z,71.50
2023-05-18T23:31:53.235Z,71.72
2023-05-18T23:36:03.415Z,71.75
2023-05-18T23:40:13.813Z,71.97
2023-05-18T23:44:18.182Z,72.09
2023-05-18T23:48:25.124Z,72.08
2023-05-18T23:52:34.439Z,71.97
2023-05-18T23:56:40.740Z,72.08
